createdAt,value
2018-09-28T00:02:08.039Z,72.50
2018-09-28T00:04:36.330Z,72.70
2018-09-28T00:07:04.389Z,72.10
2018-09-28T00:09:32.689Z,72.30
2018-09-28T00:12:01.016Z,72.30
2018-09-28T00:14:29.249Z,73.20
2018-09-28T00:16:57.440Z,72.80
2018-09-28T00:19:25.749Z,72.80
2018-09-28T00:21:54.010Z,72.70
2018-09-28T00:24:22.325Z,73.10
2018-09-28T00:26:50.409Z,73.60
2018-09-28T00:29:18.577Z,73.00
2018-09-28T00:31:47.676Z,73.40
2018-09-28T00:34:15.846Z,72.70
2018-09-28T00:36:44.164Z,72.50
2018-09-28T00:39:12.436Z,72.70
2018-09-28T00:41:40.560Z,72.50
2018-09-28T00:44:08.784Z,72.70
2018-09-28T00:46:36.877Z,72.70
2018-09-28T00:49:05.250Z,72.50
2018-09-28T00:51:34.062Z,71.60
2018-09-28T00:54:02.260Z,72.00
2018-09-28T00:56:30.500Z,72.40
2018-09-28T00:58:58.533Z,72.90
2018-09-28T01:01:26.737Z,72.80
2018-09-28T01:03:54.941Z,73.00
2018-09-28T01:06:23.192Z,72.90
2018-09-28T01:08:51.291Z,72.80
2018-09-28T01:11:19.608Z,72.20
2018-09-28T01:13:48.535Z,72.30
2018-09-28T01:16:16.585Z,72.40
2018-09-28T01:18:44.725Z,73.50
2018-09-28T01:21:12.973Z,73.30
2018-09-28T01:23:41.242Z,73.20
2018-09-28T01:26:09.505Z,72.80
2018-09-28T01:28:37.771Z,72.80
2018-09-28T01:31:06.004Z,72.80
2018-09-28T01:33:34.178Z,72.60
2018-09-28T01:36:02.248Z,72.30
2018-09-28T01:38:30.470Z,72.10
2018-09-28T01:40:58.909Z,72.00
2018-09-28T01:43:26.995Z,72.60
2018-09-28T01:45:55.192Z,73.20
2018-09-28T01:48:23.305Z,73.80
2018-09-28T01:50:51.483Z,74.00
2018-09-28T01:53:19.699Z,73.20
2018-09-28T01:55:47.937Z,73.20
2018-09-28T01:58:16.066Z,72.50
2018-09-28T02:00:44.392Z,73.90
2018-09-28T02:03:12.470Z,74.00
2018-09-28T02:05:40.518Z,73.90
2018-09-28T02:08:08.655Z,73.90
2018-09-28T02:10:36.850Z,73.30
2018-09-28T02:13:05.018Z,73.50
2018-09-28T02:15:33.080Z,73.30
2018-09-28T02:18:01.272Z,73.80
2018-09-28T02:20:29.518Z,72.80
2018-09-28T02:22:57.546Z,74.00
2018-09-28T02:25:27.166Z,73.00
2018-09-28T02:27:55.417Z,73.30
2018-09-28T02:30:23.506Z,72.90
2018-09-28T02:32:51.677Z,73.70
2018-09-28T02:35:19.850Z,73.90
2018-09-28T02:37:48.078Z,73.70
2018-09-28T02:40:16.337Z,74.50
2018-09-28T02:42:44.545Z,73.80
2018-09-28T02:45:12.722Z,73.80
2018-09-28T02:47:41.054Z,74.10
2018-09-28T02:50:09.200Z,75.60
2018-09-28T02:52:38.018Z,75.80
2018-09-28T02:55:06.267Z,76.10
2018-09-28T02:57:34.635Z,75.90
2018-09-28T03:00:03.486Z,76.20
2018-09-28T03:02:31.699Z,75.90
2018-09-28T03:05:00.091Z,75.90
2018-09-28T03:07:28.260Z,75.50
2018-09-28T03:09:56.422Z,75.70
2018-09-28T03:12:25.876Z,75.90
2018-09-28T03:14:54.132Z,76.00
2018-09-28T03:17:22.311Z,76.30
2018-09-28T03:19:50.531Z,74.90
2018-09-28T03:22:18.653Z,74.80
2018-09-28T03:24:46.787Z,74.60
2018-09-28T03:27:14.926Z,74.70
2018-09-28T03:29:43.132Z,76.10
2018-09-28T03:32:11.466Z,75.60
2018-09-28T03:34:39.675Z,75.20
2018-09-28T03:37:07.816Z,74.50
2018-09-28T03:39:36.041Z,74.10
2018-09-28T03:42:04.112Z,75.90
2018-09-28T03:44:32.268Z,76.10
2018-09-28T03:47:00.586Z,77.00
2018-09-28T03:49:28.569Z,76.20
2018-09-28T03:51:56.780Z,76.10
2018-09-28T03:54:24.996Z,76.10
2018-09-28T03:56:53.088Z,76.10
2018-09-28T03:59:21.558Z,76.40
2018-09-28T04:01:49.990Z,76.30
2018-09-28T04:04:18.159Z,76.10
2018-09-28T04:06:46.348Z,76.00
2018-09-28T04:09:14.468Z,76.50
2018-09-28T04:11:42.648Z,77.00
2018-09-28T04:14:10.842Z,76.40
2018-09-28T04:16:39.073Z,76.50
2018-09-28T04:19:07.263Z,77.30
2018-09-28T04:21:35.426Z,79.20
2018-09-28T04:24:03.591Z,81.60
2018-09-28T04:26:31.826Z,81.90
2018-09-28T04:29:00.474Z,81.50
2018-09-28T04:31:28.556Z,81.30
2018-09-28T04:33:56.694Z,80.00
2018-09-28T04:36:24.853Z,79.20
2018-09-28T04:38:53.136Z,79.20
2018-09-28T04:41:21.340Z,80.00
2018-09-28T04:43:49.569Z,80.50
2018-09-28T04:46:17.851Z,81.50
2018-09-28T04:48:53.867Z,82.50
2018-09-28T04:51:27.625Z,81.60
2018-09-28T04:53:57.285Z,83.10
2018-09-28T04:56:31.961Z,84.60
2018-09-28T04:59:05.460Z,83.50
2018-09-28T05:01:33.665Z,83.80
2018-09-28T05:04:01.930Z,82.80
2018-09-28T05:06:30.077Z,82.10
2018-09-28T05:08:59.069Z,82.70
2018-09-28T05:11:27.475Z,81.90
2018-09-28T05:13:55.750Z,81.80
2018-09-28T05:16:23.926Z,82.50
2018-09-28T05:18:52.035Z,81.80
2018-09-28T05:21:20.170Z,81.30
2018-09-28T05:23:48.354Z,79.70
2018-09-28T05:26:16.589Z,78.80
2018-09-28T05:28:44.759Z,78.40
2018-09-28T05:31:13.031Z,78.40
2018-09-28T05:33:41.207Z,78.20
2018-09-28T05:36:09.419Z,78.70
2018-09-28T05:38:37.468Z,78.00
2018-09-28T05:41:05.994Z,77.90
2018-09-28T05:43:34.235Z,77.20
2018-09-28T05:46:02.499Z,76.80
2018-09-28T05:48:30.632Z,75.80
2018-09-28T05:50:58.909Z,75.50
2018-09-28T05:53:27.128Z,75.60
2018-09-28T05:55:55.365Z,76.10
2018-09-28T05:58:29.064Z,75.80
2018-09-28T06:01:02.787Z,76.30
2018-09-28T06:03:30.951Z,75.60
2018-09-28T06:06:02.679Z,75.40
2018-09-28T06:08:31.266Z,74.80
2018-09-28T06:10:59.326Z,74.70
2018-09-28T06:13:27.405Z,74.90
2018-09-28T06:15:55.421Z,74.40
2018-09-28T06:18:23.577Z,75.00
2018-09-28T06:20:51.638Z,74.80
2018-09-28T06:23:19.682Z,75.10
2018-09-28T06:25:47.704Z,75.00
2018-09-28T06:28:15.750Z,73.90
2018-09-28T06:30:43.751Z,74.00
2018-09-28T06:33:11.770Z,73.50
2018-09-28T06:35:39.969Z,73.00
2018-09-28T06:38:08.195Z,72.00
2018-09-28T06:40:36.466Z,72.30
2018-09-28T06:43:04.625Z,71.80
2018-09-28T06:45:32.799Z,71.30
2018-09-28T06:48:01.685Z,70.60
2018-09-28T06:50:29.857Z,71.20
2018-09-28T06:52:58.145Z,71.30
2018-09-28T06:55:26.257Z,71.20
2018-09-28T06:57:54.619Z,71.00
2018-09-28T07:00:22.890Z,70.80
2018-09-28T07:02:51.187Z,69.70
2018-09-28T07:05:19.375Z,69.90
2018-09-28T07:07:47.640Z,70.00
2018-09-28T07:10:15.864Z,69.10
2018-09-28T07:12:44.093Z,67.90
2018-09-28T07:15:12.299Z,67.60
2018-09-28T07:17:40.516Z,65.70
2018-09-28T07:20:08.932Z,56.20
2018-09-28T07:22:37.088Z,49.80
2018-09-28T07:25:05.310Z,44.00
2018-09-28T07:27:33.522Z,39.00
2018-09-28T07:30:01.925Z,36.70
2018-09-28T07:32:30.658Z,35.60
2018-09-28T07:34:58.880Z,33.90
2018-09-28T07:37:27.812Z,31.00
2018-09-28T07:39:56.281Z,30.00
2018-09-28T07:42:24.698Z,29.10
2018-09-28T07:44:53.444Z,27.90
2018-09-28T07:47:21.640Z,27.40
2018-09-28T07:49:49.906Z,26.40
2018-09-28T07:52:20.007Z,25.40
2018-09-28T07:54:48.199Z,24.80
2018-09-28T07:57:16.282Z,25.50
2018-09-28T07:59:44.928Z,25.20
2018-09-28T08:02:13.032Z,24.70
2018-09-28T08:04:41.280Z,24.40
2018-09-28T08:07:09.577Z,23.90
2018-09-28T08:09:37.803Z,23.20
2018-09-28T08:12:06.004Z,22.90
2018-09-28T08:14:34.194Z,22.90
2018-09-28T08:17:02.221Z,22.10
2018-09-28T08:19:30.340Z,21.80
2018-09-28T08:21:58.500Z,21.70
2018-09-28T08:24:27.389Z,21.60
2018-09-28T08:26:55.537Z,21.40
2018-09-28T08:29:23.736Z,21.10
2018-09-28T08:31:51.856Z,20.50
2018-09-28T08:34:20.081Z,20.60
2018-09-28T08:36:48.338Z,20.40
2018-09-28T08:39:16.568Z,20.60
2018-09-28T08:41:44.786Z,20.60
2018-09-28T08:44:13.576Z,20.20
2018-09-28T08:46:41.770Z,20.80
2018-09-28T08:49:09.847Z,19.60
2018-09-28T08:51:38.130Z,18.80
2018-09-28T08:54:06.225Z,18.30
2018-09-28T08:56:34.373Z,17.60
2018-09-28T08:59:02.482Z,17.20
2018-09-28T09:01:30.725Z,17.70
2018-09-28T09:03:58.998Z,17.70
2018-09-28T09:06:27.244Z,18.00
2018-09-28T09:08:55.540Z,19.40
2018-09-28T09:11:23.681Z,21.00
2018-09-28T09:13:52.003Z,23.60
2018-09-28T09:16:20.164Z,24.30
2018-09-28T09:18:48.243Z,25.50
2018-09-28T09:21:16.315Z,26.90
2018-09-28T09:23:44.565Z,27.30
2018-09-28T09:26:12.806Z,28.30
2018-09-28T09:28:40.975Z,29.40
2018-09-28T09:31:08.984Z,30.20
2018-09-28T09:33:37.137Z,30.10
2018-09-28T09:36:05.290Z,31.30
2018-09-28T09:38:33.467Z,31.80
2018-09-28T09:41:02.277Z,32.20
2018-09-28T09:43:30.601Z,32.90
2018-09-28T09:45:58.757Z,32.50
2018-09-28T09:48:27.081Z,31.60
2018-09-28T09:50:55.261Z,31.90
2018-09-28T09:53:23.529Z,30.90
2018-09-28T09:55:51.733Z,31.80
2018-09-28T09:58:19.994Z,32.40
2018-09-28T10:00:53.638Z,31.80
2018-09-28T10:03:27.383Z,32.00
2018-09-28T10:05:55.433Z,31.00
2018-09-28T10:08:23.607Z,30.50
2018-09-28T10:10:51.829Z,30.30
2018-09-28T10:13:20.128Z,30.20
2018-09-28T10:15:48.949Z,30.10
2018-09-28T10:18:17.169Z,30.50
2018-09-28T10:20:45.166Z,30.00
2018-09-28T10:23:13.861Z,28.20
2018-09-28T10:25:42.018Z,29.40
2018-09-28T10:28:10.246Z,29.80
2018-09-28T10:30:38.470Z,27.90
2018-09-28T10:33:06.713Z,24.70
2018-09-28T10:35:34.949Z,22.10
2018-09-28T10:38:03.198Z,21.30
2018-09-28T10:40:31.537Z,18.50
2018-09-28T10:42:59.661Z,17.40
2018-09-28T10:45:27.932Z,16.20
2018-09-28T10:47:56.121Z,15.50
2018-09-28T10:50:24.236Z,15.90
2018-09-28T10:52:53.184Z,15.60
2018-09-28T10:55:21.322Z,13.70
2018-09-28T10:57:49.531Z,14.00
2018-09-28T11:00:18.455Z,13.40
2018-09-28T11:02:46.648Z,14.20
2018-09-28T11:05:14.791Z,14.20
2018-09-28T11:07:42.914Z,15.20
2018-09-28T11:10:11.109Z,16.50
2018-09-28T11:12:39.102Z,16.40
2018-09-28T11:15:07.284Z,17.20
2018-09-28T11:17:35.462Z,18.10
2018-09-28T11:20:03.691Z,18.80
2018-09-28T11:22:31.917Z,19.80
2018-09-28T11:24:59.990Z,20.60
2018-09-28T11:27:28.204Z,20.40
2018-09-28T11:29:56.319Z,20.50
2018-09-28T11:32:24.521Z,21.30
2018-09-28T11:34:52.707Z,21.50
2018-09-28T11:37:20.897Z,21.90
2018-09-28T11:39:49.080Z,20.80
2018-09-28T11:42:17.231Z,21.20
2018-09-28T11:44:45.391Z,21.90
2018-09-28T11:47:13.717Z,20.80
2018-09-28T11:49:41.924Z,18.30
2018-09-28T11:52:10.062Z,17.30
2018-09-28T11:54:38.236Z,16.20
2018-09-28T11:57:06.505Z,16.70
2018-09-28T11:59:34.627Z,17.30
2018-09-28T12:02:03.065Z,18.90
2018-09-28T12:04:31.185Z,20.50
2018-09-28T12:06:59.605Z,20.40
2018-09-28T12:09:27.731Z,20.40
2018-09-28T12:11:55.961Z,21.20
2018-09-28T12:14:24.237Z,20.90
2018-09-28T12:16:52.395Z,19.10
2018-09-28T12:19:20.686Z,18.70
2018-09-28T12:21:48.928Z,18.40
2018-09-28T12:24:17.093Z,20.90
2018-09-28T12:26:45.314Z,22.20
2018-09-28T12:29:13.600Z,24.10
2018-09-28T12:31:41.806Z,26.10
2018-09-28T12:34:09.989Z,28.10
2018-09-28T12:36:38.097Z,27.50
2018-09-28T12:39:08.915Z,28.40
2018-09-28T12:41:37.208Z,28.60
2018-09-28T12:44:06.167Z,27.70
2018-09-28T12:46:34.328Z,28.00
2018-09-28T12:49:02.492Z,29.30
2018-09-28T12:51:30.608Z,30.10
2018-09-28T12:53:58.740Z,30.90
2018-09-28T12:56:26.963Z,31.80
2018-09-28T12:58:55.677Z,33.30
2018-09-28T13:01:24.440Z,32.00
2018-09-28T13:03:53.046Z,29.10
2018-09-28T13:06:21.413Z,27.70
2018-09-28T13:08:49.849Z,25.90
2018-09-28T13:11:18.099Z,25.50
2018-09-28T13:13:46.402Z,24.60
2018-09-28T13:16:14.613Z,23.20
2018-09-28T13:18:43.122Z,22.90
2018-09-28T13:21:11.243Z,23.30
2018-09-28T13:23:39.414Z,24.40
2018-09-28T13:26:07.694Z,24.90
2018-09-28T13:28:35.857Z,25.50
2018-09-28T13:31:03.998Z,26.50
2018-09-28T13:33:32.622Z,27.70
2018-09-28T13:36:00.808Z,28.50
2018-09-28T13:38:29.100Z,28.20
2018-09-28T13:40:57.281Z,28.40
2018-09-28T13:43:25.477Z,28.60
2018-09-28T13:45:53.663Z,29.60
2018-09-28T13:48:22.048Z,32.20
2018-09-28T13:50:50.264Z,31.80
2018-09-28T13:53:18.519Z,31.80
2018-09-28T13:55:46.670Z,32.30
2018-09-28T13:58:14.934Z,32.00
2018-09-28T14:00:43.291Z,31.70
2018-09-28T14:03:11.481Z,31.10
2018-09-28T14:05:39.704Z,32.10
2018-09-28T14:08:07.883Z,33.00
2018-09-28T14:10:36.145Z,34.50
2018-09-28T14:13:04.461Z,35.60
2018-09-28T14:15:37.846Z,35.20
2018-09-28T14:18:06.807Z,35.90
2018-09-28T14:20:34.997Z,36.80
2018-09-28T14:23:03.078Z,36.70
2018-09-28T14:25:31.332Z,37.50
2018-09-28T14:27:59.571Z,39.00
2018-09-28T14:30:27.746Z,40.80
2018-09-28T14:32:56.035Z,41.90
2018-09-28T14:35:24.262Z,42.20
2018-09-28T14:37:52.466Z,43.10
2018-09-28T14:40:20.563Z,44.00
2018-09-28T14:42:48.791Z,43.40
2018-09-28T14:45:16.988Z,44.20
2018-09-28T14:47:45.268Z,43.80
2018-09-28T14:50:13.731Z,45.50
2018-09-28T14:52:41.958Z,45.60
2018-09-28T14:55:10.276Z,45.60
2018-09-28T14:57:38.374Z,45.50
2018-09-28T15:00:07.158Z,45.50
2018-09-28T15:02:35.941Z,46.00
2018-09-28T15:05:04.191Z,45.30
2018-09-28T15:07:33.094Z,45.40
2018-09-28T15:10:03.815Z,45.30
2018-09-28T15:12:33.699Z,45.20
2018-09-28T15:15:03.002Z,45.10
2018-09-28T15:17:31.343Z,46.20
2018-09-28T15:20:00.618Z,47.10
2018-09-28T15:22:29.810Z,46.50
2018-09-28T15:24:58.723Z,45.60
2018-09-28T15:27:27.812Z,46.00
2018-09-28T15:29:56.337Z,46.70
2018-09-28T15:32:24.639Z,47.20
2018-09-28T15:34:53.117Z,47.20
2018-09-28T15:37:21.437Z,47.00
2018-09-28T15:39:49.619Z,46.60
2018-09-28T15:42:17.857Z,47.50
2018-09-28T15:44:46.175Z,47.20
2018-09-28T15:47:14.577Z,47.20
2018-09-28T15:49:42.825Z,47.30
2018-09-28T15:52:11.104Z,47.10
2018-09-28T15:54:39.350Z,47.50
2018-09-28T15:57:07.554Z,47.50
2018-09-28T15:59:35.743Z,47.50
2018-09-28T16:02:04.058Z,47.70
2018-09-28T16:04:32.954Z,47.80
2018-09-28T16:07:01.141Z,46.80
2018-09-28T16:09:29.404Z,47.40
2018-09-28T16:11:57.751Z,47.30
2018-09-28T16:14:26.138Z,46.00
2018-09-28T16:16:54.618Z,45.50
2018-09-28T16:19:22.907Z,46.90
2018-09-28T16:21:51.157Z,46.20
2018-09-28T16:24:19.331Z,45.90
2018-09-28T16:26:47.382Z,45.40
2018-09-28T16:29:15.634Z,44.00
2018-09-28T16:31:43.807Z,44.00
2018-09-28T16:34:11.917Z,43.90
2018-09-28T16:36:40.065Z,43.20
2018-09-28T16:39:09.664Z,43.30
2018-09-28T16:41:38.335Z,43.40
2018-09-28T16:44:06.845Z,43.10
2018-09-28T16:46:35.144Z,43.10
2018-09-28T16:49:03.676Z,43.10
2018-09-28T16:51:31.749Z,43.10
2018-09-28T16:54:00.686Z,43.60
2018-09-28T16:56:28.879Z,41.80
2018-09-28T16:58:57.060Z,41.70
2018-09-28T17:01:26.130Z,41.80
2018-09-28T17:03:54.352Z,41.00
2018-09-28T17:06:23.370Z,40.30
2018-09-28T17:08:51.457Z,39.90
2018-09-28T17:11:19.598Z,39.60
2018-09-28T17:13:48.067Z,40.00
2018-09-28T17:16:16.124Z,39.60
2018-09-28T17:18:44.422Z,40.00
2018-09-28T17:21:12.590Z,39.70
2018-09-28T17:23:40.713Z,40.10
2018-09-28T17:26:08.846Z,39.40
2018-09-28T17:28:37.046Z,38.70
2018-09-28T17:31:05.162Z,38.40
2018-09-28T17:33:33.550Z,38.80
2018-09-28T17:36:02.190Z,38.70
2018-09-28T17:38:30.320Z,38.20
2018-09-28T17:40:58.636Z,39.50
2018-09-28T17:43:27.062Z,38.20
2018-09-28T17:45:55.339Z,36.50
2018-09-28T17:48:26.560Z,36.40
2018-09-28T17:50:54.856Z,37.90
2018-09-28T17:53:24.109Z,36.90
2018-09-28T17:55:52.449Z,36.80
2018-09-28T17:58:20.633Z,37.10
2018-09-28T18:00:49.675Z,37.20
2018-09-28T18:03:17.987Z,36.90
2018-09-28T18:05:46.283Z,37.20
2018-09-28T18:08:14.356Z,36.40
2018-09-28T18:10:42.557Z,38.50
2018-09-28T18:13:10.654Z,37.50
2018-09-28T18:15:38.773Z,37.20
2018-09-28T18:18:06.958Z,37.80
2018-09-28T18:20:35.111Z,36.80
2018-09-28T18:23:03.272Z,36.80
2018-09-28T18:25:31.281Z,37.10
2018-09-28T18:27:59.437Z,37.10
2018-09-28T18:30:27.736Z,37.50
2018-09-28T18:32:56.193Z,37.20
2018-09-28T18:35:24.269Z,37.30
2018-09-28T18:37:52.697Z,37.60
2018-09-28T18:40:20.963Z,37.40
2018-09-28T18:42:49.859Z,38.80
2018-09-28T18:45:18.092Z,37.50
2018-09-28T18:47:46.295Z,37.40
2018-09-28T18:50:14.587Z,38.20
2018-09-28T18:52:42.871Z,38.10
2018-09-28T18:55:11.363Z,38.00
2018-09-28T18:57:39.960Z,37.90
2018-09-28T19:00:08.860Z,38.40
2018-09-28T19:02:37.052Z,38.80
2018-09-28T19:05:05.281Z,38.30
2018-09-28T19:07:33.465Z,38.10
2018-09-28T19:10:01.752Z,39.10
2018-09-28T19:12:30.024Z,39.30
2018-09-28T19:14:58.101Z,39.20
2018-09-28T19:17:26.302Z,39.00
2018-09-28T19:19:54.531Z,40.40
2018-09-28T19:22:23.071Z,40.60
2018-09-28T19:24:51.523Z,41.10
2018-09-28T19:27:19.743Z,40.90
2018-09-28T19:29:48.084Z,40.80
2018-09-28T19:32:16.346Z,42.60
2018-09-28T19:34:44.455Z,41.00
2018-09-28T19:37:12.640Z,42.40
2018-09-28T19:39:40.901Z,43.50
2018-09-28T19:42:09.109Z,42.80
2018-09-28T19:44:37.305Z,44.40
2018-09-28T19:47:05.971Z,44.70
2018-09-28T19:49:34.129Z,45.10
2018-09-28T19:52:02.584Z,46.00
2018-09-28T19:54:30.968Z,46.40
2018-09-28T19:56:59.182Z,46.20
2018-09-28T19:59:27.332Z,47.50
2018-09-28T20:01:55.673Z,47.70
2018-09-28T20:04:23.849Z,47.20
2018-09-28T20:06:52.007Z,47.90
2018-09-28T20:09:20.263Z,47.40
2018-09-28T20:11:48.837Z,48.80
2018-09-28T20:14:16.905Z,49.10
2018-09-28T20:16:45.109Z,49.80
2018-09-28T20:19:13.328Z,49.70
2018-09-28T20:21:41.561Z,49.80
2018-09-28T20:24:09.841Z,49.60
2018-09-28T20:26:38.021Z,49.50
2018-09-28T20:29:06.568Z,49.50
2018-09-28T20:31:34.990Z,49.40
2018-09-28T20:34:03.293Z,49.40
2018-09-28T20:36:31.556Z,49.30
2018-09-28T20:38:59.725Z,50.10
2018-09-28T20:41:27.926Z,51.20
2018-09-28T20:43:56.168Z,52.30
2018-09-28T20:46:24.434Z,52.30
2018-09-28T20:48:53.225Z,51.70
2018-09-28T20:51:21.389Z,52.50
2018-09-28T20:53:49.720Z,52.40
2018-09-28T20:56:17.884Z,53.00
2018-09-28T20:58:45.997Z,53.20
2018-09-28T21:01:14.142Z,53.50
2018-09-28T21:03:42.400Z,54.20
2018-09-28T21:06:10.996Z,54.40
2018-09-28T21:08:39.146Z,54.70
2018-09-28T21:11:07.435Z,53.70
2018-09-28T21:13:35.772Z,56.70
2018-09-28T21:16:03.949Z,57.20
2018-09-28T21:18:32.137Z,56.90
2018-09-28T21:21:00.329Z,57.60
2018-09-28T21:23:28.537Z,58.00
2018-09-28T21:25:56.597Z,59.40
2018-09-28T21:28:24.676Z,58.00
2018-09-28T21:30:52.905Z,58.10
2018-09-28T21:33:21.313Z,59.20
2018-09-28T21:35:49.594Z,59.20
2018-09-28T21:38:17.766Z,59.00
2018-09-28T21:40:45.944Z,59.20
2018-09-28T21:43:14.126Z,58.20
2018-09-28T21:45:42.522Z,59.20
2018-09-28T21:48:10.703Z,59.10
2018-09-28T21:50:39.003Z,59.10
2018-09-28T21:53:07.220Z,59.00
2018-09-28T21:55:35.487Z,59.00
2018-09-28T21:58:03.674Z,59.00
2018-09-28T22:00:36.594Z,58.80
2018-09-28T22:03:05.598Z,58.80
2018-09-28T22:05:33.697Z,58.90
2018-09-28T22:08:02.481Z,60.30
2018-09-28T22:10:31.174Z,58.80
2018-09-28T22:12:59.492Z,60.60
2018-09-28T22:15:27.709Z,61.00
2018-09-28T22:17:55.882Z,60.90
2018-09-28T22:20:24.101Z,61.00
2018-09-28T22:22:52.378Z,62.30
2018-09-28T22:25:20.552Z,63.00
2018-09-28T22:27:48.838Z,63.60
2018-09-28T22:30:17.094Z,63.50
2018-09-28T22:32:45.442Z,64.10
2018-09-28T22:35:18.728Z,64.10
2018-09-28T22:37:47.066Z,65.00
2018-09-28T22:40:15.319Z,64.60
2018-09-28T22:42:44.162Z,64.60
2018-09-28T22:45:12.353Z,64.90
2018-09-28T22:47:40.595Z,65.30
2018-09-28T22:50:08.603Z,65.30
2018-09-28T22:52:36.777Z,65.70
2018-09-28T22:55:05.038Z,64.40
2018-09-28T22:57:33.287Z,65.70
2018-09-28T23:00:01.560Z,64.80
2018-09-28T23:02:29.626Z,64.70
2018-09-28T23:04:57.853Z,65.40
2018-09-28T23:07:25.950Z,65.60
2018-09-28T23:09:54.122Z,65.80
2018-09-28T23:12:22.267Z,66.30
2018-09-28T23:14:50.606Z,66.70
2018-09-28T23:17:18.786Z,67.20
2018-09-28T23:19:46.796Z,68.40
2018-09-28T23:22:15.107Z,66.50
2018-09-28T23:24:43.399Z,66.80
2018-09-28T23:27:11.682Z,68.40
2018-09-28T23:29:39.932Z,67.40
2018-09-28T23:32:08.238Z,66.20
2018-09-28T23:34:36.501Z,67.00
2018-09-28T23:37:04.746Z,67.80
2018-09-28T23:39:32.871Z,67.90
2018-09-28T23:42:01.017Z,67.30
2018-09-28T23:44:29.430Z,68.20
2018-09-28T23:46:57.967Z,68.20
2018-09-28T23:49:26.094Z,67.30
2018-09-28T23:51:54.294Z,68.20
2018-09-28T23:54:22.452Z,68.20
2018-09-28T23:56:50.996Z,68.10
2018-09-28T23:59:19.256Z,68.80
